createdAt,value
2022-10-31T00:01:30.599Z,35.50
2022-10-31T00:03:57.577Z,35.70
2022-10-31T00:06:27.772Z,35.90
2022-10-31T00:09:00.351Z,35.70
2022-10-31T00:11:27.815Z,35.90
2022-10-31T00:13:55.110Z,35.90
2022-10-31T00:16:24.364Z,36.00
2022-10-31T00:19:02.300Z,35.80
2022-10-31T00:21:30.919Z,35.50
2022-10-31T00:23:59.875Z,35.50
2022-10-31T00:26:32.205Z,35.30
2022-10-31T00:29:00.447Z,35.50
2022-10-31T00:31:30.841Z,35.60
2022-10-31T00:33:59.098Z,35.90
2022-10-31T00:36:26.050Z,35.80
2022-10-31T00:38:53.011Z,35.60
2022-10-31T00:41:20.067Z,35.40
2022-10-31T00:43:47.066Z,35.00
2022-10-31T00:46:14.836Z,35.30
2022-10-31T00:48:42.453Z,35.70
2022-10-31T00:51:09.836Z,35.70
2022-10-31T00:53:37.023Z,35.70
2022-10-31T00:56:04.325Z,35.60
2022-10-31T00:58:31.404Z,35.60
2022-10-31T01:00:58.427Z,35.70
2022-10-31T01:03:31.424Z,35.90
2022-10-31T01:06:09.637Z,36.10
2022-10-31T01:08:37.929Z,36.20
2022-10-31T01:11:09.715Z,36.10
2022-10-31T01:13:36.678Z,35.90
2022-10-31T01:16:06.152Z,35.70
2022-10-31T01:18:33.386Z,35.30
2022-10-31T01:21:06.119Z,35.30
2022-10-31T01:23:33.935Z,35.60
2022-10-31T01:26:03.132Z,35.80
2022-10-31T01:28:30.163Z,35.90
2022-10-31T01:31:00.721Z,35.70
2022-10-31T01:33:27.619Z,35.90
2022-10-31T01:35:54.566Z,35.90
2022-10-31T01:38:21.484Z,35.90
2022-10-31T01:40:48.396Z,35.90
2022-10-31T01:43:15.857Z,35.90
2022-10-31T01:45:48.918Z,35.80
2022-10-31T01:48:19.000Z,35.40
2022-10-31T01:50:49.551Z,35.20
2022-10-31T01:53:17.434Z,35.20
2022-10-31T01:55:47.248Z,35.20
2022-10-31T01:58:23.687Z,34.90
2022-10-31T02:00:55.772Z,34.80
2022-10-31T02:03:24.174Z,35.00
2022-10-31T02:05:52.414Z,35.10
2022-10-31T02:08:32.228Z,35.30
2022-10-31T02:11:01.170Z,35.20
2022-10-31T02:13:30.370Z,35.10
2022-10-31T02:16:00.177Z,35.00
2022-10-31T02:18:30.427Z,35.10
2022-10-31T02:21:50.951Z,34.90
2022-10-31T02:24:46.402Z,34.80
2022-10-31T02:27:52.279Z,35.00
2022-10-31T02:30:30.729Z,35.10
2022-10-31T02:33:24.758Z,35.40
2022-10-31T02:35:55.580Z,35.70
2022-10-31T02:38:32.798Z,35.90
2022-10-31T02:41:08.468Z,35.80
2022-10-31T02:43:47.183Z,36.00
2022-10-31T02:47:08.014Z,36.20
2022-10-31T02:50:00.554Z,36.30
2022-10-31T02:52:30.155Z,36.10
2022-10-31T02:54:57.576Z,35.90
2022-10-31T02:57:32.170Z,35.90
2022-10-31T03:00:04.784Z,35.90
2022-10-31T03:02:52.922Z,35.30
2022-10-31T03:05:22.540Z,35.30
2022-10-31T03:08:03.907Z,35.30
2022-10-31T03:10:45.911Z,35.50
2022-10-31T03:13:51.528Z,35.70
2022-10-31T03:16:33.340Z,35.90
2022-10-31T03:19:12.042Z,35.90
2022-10-31T03:21:38.987Z,35.80
2022-10-31T03:24:08.570Z,35.20
2022-10-31T03:26:39.949Z,34.40
2022-10-31T03:29:09.138Z,34.30
2022-10-31T03:32:11.655Z,33.70
2022-10-31T03:34:41.339Z,33.30
2022-10-31T03:37:11.827Z,33.30
2022-10-31T03:39:42.212Z,33.50
2022-10-31T03:42:13.977Z,33.70
2022-10-31T03:44:45.529Z,34.20
2022-10-31T03:47:12.676Z,34.60
2022-10-31T03:49:40.241Z,34.70
2022-10-31T03:52:18.762Z,34.80
2022-10-31T03:54:48.016Z,35.10
2022-10-31T03:57:38.985Z,35.30
2022-10-31T04:00:10.622Z,35.10
2022-10-31T04:02:42.696Z,35.30
2022-10-31T04:05:11.935Z,35.40
2022-10-31T04:07:44.377Z,35.50
2022-10-31T04:10:19.600Z,35.50
2022-10-31T04:12:52.491Z,35.40
2022-10-31T04:15:22.221Z,35.20
2022-10-31T04:17:51.563Z,34.90
2022-10-31T04:20:19.439Z,34.80
2022-10-31T04:22:46.379Z,35.00
2022-10-31T04:25:13.330Z,35.00
2022-10-31T04:27:40.285Z,34.80
2022-10-31T04:30:07.848Z,34.30
2022-10-31T04:32:34.751Z,34.60
2022-10-31T04:35:01.741Z,34.90
2022-10-31T04:37:31.368Z,34.80
2022-10-31T04:39:58.269Z,34.60
2022-10-31T04:42:25.227Z,34.60
2022-10-31T04:44:52.213Z,34.70
2022-10-31T04:47:19.130Z,34.30
2022-10-31T04:49:46.058Z,34.10
2022-10-31T04:52:13.010Z,34.30
2022-10-31T04:54:39.944Z,34.20
2022-10-31T04:57:07.025Z,34.30
2022-10-31T04:59:34.180Z,33.90
2022-10-31T05:02:01.213Z,33.50
2022-10-31T05:04:28.238Z,32.90
2022-10-31T05:06:55.184Z,32.50
2022-10-31T05:09:22.079Z,32.50
2022-10-31T05:11:49.026Z,32.70
2022-10-31T05:14:18.981Z,33.30
2022-10-31T05:16:45.872Z,33.70
2022-10-31T05:19:12.844Z,34.00
2022-10-31T05:21:39.959Z,33.90
2022-10-31T05:24:07.343Z,34.00
2022-10-31T05:26:34.319Z,34.20
2022-10-31T05:29:01.342Z,34.30
2022-10-31T05:31:28.440Z,34.20
2022-10-31T05:33:55.382Z,33.90
2022-10-31T05:36:22.326Z,33.80
2022-10-31T05:38:49.236Z,33.90
2022-10-31T05:41:16.178Z,34.00
2022-10-31T05:43:43.104Z,34.50
2022-10-31T05:46:10.013Z,34.90
2022-10-31T05:48:36.935Z,35.20
2022-10-31T05:51:04.039Z,35.40
2022-10-31T05:53:30.932Z,35.80
2022-10-31T05:55:57.955Z,36.00
2022-10-31T05:58:25.143Z,36.20
2022-10-31T06:00:52.075Z,35.90
2022-10-31T06:03:19.064Z,35.70
2022-10-31T06:05:49.326Z,35.30
2022-10-31T06:08:19.434Z,35.30
2022-10-31T06:10:46.406Z,35.40
2022-10-31T06:13:13.396Z,35.20
2022-10-31T06:15:40.331Z,34.80
2022-10-31T06:18:07.513Z,34.10
2022-10-31T06:20:35.278Z,33.80
2022-10-31T06:23:03.006Z,33.60
2022-10-31T06:25:30.409Z,33.90
2022-10-31T06:27:58.098Z,34.30
2022-10-31T06:30:25.551Z,34.30
2022-10-31T06:32:52.730Z,34.20
2022-10-31T06:35:19.819Z,34.10
2022-10-31T06:37:56.735Z,34.00
2022-10-31T06:40:24.049Z,34.40
2022-10-31T06:43:03.484Z,34.80
2022-10-31T06:45:33.004Z,35.30
2022-10-31T06:50:47.454Z,35.00
2022-10-31T06:53:15.432Z,34.60
2022-10-31T06:55:43.046Z,34.50
2022-10-31T06:58:11.671Z,34.80
2022-10-31T07:00:38.734Z,34.60
2022-10-31T07:03:10.128Z,33.80
2022-10-31T07:05:37.164Z,33.50
2022-10-31T07:08:07.998Z,33.90
2022-10-31T07:10:40.359Z,34.20
2022-10-31T07:13:14.695Z,34.10
2022-10-31T07:15:43.502Z,34.70
2022-10-31T07:18:12.530Z,35.00
2022-10-31T07:20:39.729Z,34.70
2022-10-31T07:23:07.066Z,35.20
2022-10-31T07:25:34.272Z,35.60
2022-10-31T07:28:01.461Z,35.80
2022-10-31T07:30:30.032Z,35.60
2022-10-31T07:32:58.931Z,35.40
2022-10-31T07:35:28.694Z,34.90
2022-10-31T07:37:56.130Z,34.70
2022-10-31T07:40:24.757Z,34.80
2022-10-31T07:42:53.850Z,34.70
2022-10-31T07:45:22.482Z,34.60
2022-10-31T07:47:53.877Z,34.90
2022-10-31T07:50:23.098Z,34.70
2022-10-31T07:52:58.878Z,34.70
2022-10-31T07:55:26.094Z,35.50
2022-10-31T07:58:13.516Z,35.90
2022-10-31T08:00:42.570Z,36.00
2022-10-31T08:03:14.735Z,36.10
2022-10-31T08:05:42.572Z,35.40
2022-10-31T08:08:12.268Z,35.60
2022-10-31T08:10:39.993Z,36.10
2022-10-31T08:13:09.286Z,36.40
2022-10-31T08:15:39.304Z,36.40
2022-10-31T08:18:15.813Z,36.10
2022-10-31T08:20:44.108Z,35.90
2022-10-31T08:23:13.109Z,36.20
2022-10-31T08:25:40.822Z,36.40
2022-10-31T08:28:09.770Z,36.40
2022-10-31T08:30:38.428Z,36.60
2022-10-31T08:33:07.917Z,37.00
2022-10-31T08:35:35.163Z,37.30
2022-10-31T08:38:02.703Z,37.00
2022-10-31T08:40:31.680Z,37.30
2022-10-31T08:43:04.212Z,37.40
2022-10-31T08:45:33.258Z,37.60
2022-10-31T08:48:02.976Z,37.90
2022-10-31T08:50:32.076Z,38.10
2022-10-31T08:53:13.285Z,37.90
2022-10-31T08:55:40.560Z,37.90
2022-10-31T08:58:10.875Z,38.00
2022-10-31T09:00:38.314Z,38.10
2022-10-31T09:03:25.706Z,38.20
2022-10-31T09:05:56.860Z,38.30
2022-10-31T09:08:23.972Z,38.50
2022-10-31T09:10:50.971Z,38.70
2022-10-31T09:13:20.094Z,38.80
2022-10-31T09:15:49.011Z,38.90
2022-10-31T09:18:18.024Z,39.10
2022-10-31T09:20:46.505Z,39.30
2022-10-31T09:23:15.764Z,39.30
2022-10-31T09:25:49.160Z,39.30
2022-10-31T09:28:23.489Z,39.30
2022-10-31T09:30:54.117Z,38.70
2022-10-31T09:33:21.730Z,38.40
2022-10-31T09:35:49.493Z,38.30
2022-10-31T09:38:21.748Z,38.70
2022-10-31T09:41:00.726Z,38.90
2022-10-31T09:43:54.216Z,38.90
2022-10-31T09:46:37.141Z,38.70
2022-10-31T09:49:09.716Z,38.30
2022-10-31T09:51:46.899Z,38.60
2022-10-31T09:54:42.457Z,38.60
2022-10-31T09:57:15.558Z,38.50
2022-10-31T09:59:44.709Z,38.10
2022-10-31T10:02:23.094Z,38.30
2022-10-31T10:04:54.633Z,37.90
2022-10-31T10:07:31.627Z,37.50
2022-10-31T10:10:00.910Z,37.10
2022-10-31T10:12:52.014Z,36.60
2022-10-31T10:15:46.432Z,36.90
2022-10-31T10:18:39.841Z,37.50
2022-10-31T10:21:39.189Z,37.20
2022-10-31T10:24:32.090Z,37.00
2022-10-31T10:27:43.180Z,37.20
2022-10-31T10:30:23.131Z,37.20
2022-10-31T10:32:57.696Z,36.80
2022-10-31T10:35:27.448Z,36.70
2022-10-31T10:38:05.039Z,37.00
2022-10-31T10:40:32.365Z,37.10
2022-10-31T10:43:34.282Z,37.20
2022-10-31T10:46:42.193Z,37.40
2022-10-31T10:49:42.201Z,37.50
2022-10-31T10:55:30.553Z,37.40
2022-10-31T10:58:05.712Z,37.50
2022-10-31T11:00:34.267Z,37.70
2022-10-31T11:03:02.094Z,37.70
2022-10-31T11:05:43.976Z,38.10
2022-10-31T11:08:10.891Z,37.90
2022-10-31T11:10:38.466Z,37.20
2022-10-31T11:13:14.237Z,37.20
2022-10-31T11:15:51.481Z,37.10
2022-10-31T11:18:31.240Z,37.30
2022-10-31T11:21:01.262Z,37.50
2022-10-31T11:23:29.840Z,37.60
2022-10-31T11:26:19.508Z,37.90
2022-10-31T11:28:58.017Z,37.90
2022-10-31T11:31:27.118Z,38.10
2022-10-31T11:34:00.927Z,37.70
2022-10-31T11:36:33.657Z,37.50
2022-10-31T11:39:02.818Z,37.50
2022-10-31T11:41:36.226Z,37.30
2022-10-31T11:44:11.033Z,37.70
2022-10-31T11:46:43.796Z,37.80
2022-10-31T11:49:30.223Z,37.80
2022-10-31T11:51:59.288Z,37.70
2022-10-31T11:54:30.666Z,37.20
2022-10-31T11:56:58.139Z,37.20
2022-10-31T11:59:30.577Z,37.30
2022-10-31T12:02:00.828Z,37.20
2022-10-31T12:04:50.141Z,37.20
2022-10-31T12:07:17.079Z,37.50
2022-10-31T12:09:44.039Z,37.20
2022-10-31T12:12:14.239Z,37.50
2022-10-31T12:15:01.396Z,37.70
2022-10-31T12:18:11.056Z,37.60
2022-10-31T12:20:56.556Z,37.30
2022-10-31T12:23:39.463Z,36.70
2022-10-31T12:26:15.189Z,36.70
2022-10-31T12:29:06.330Z,37.10
2022-10-31T12:31:39.589Z,37.30
2022-10-31T12:34:34.596Z,37.20
2022-10-31T12:37:13.607Z,37.40
2022-10-31T12:39:40.489Z,37.80
2022-10-31T12:42:39.751Z,37.80
2022-10-31T12:45:19.584Z,37.70
2022-10-31T12:48:10.584Z,38.00
2022-10-31T12:50:51.837Z,38.20
2022-10-31T12:53:39.281Z,37.80
2022-10-31T12:56:30.754Z,38.10
2022-10-31T12:59:17.653Z,38.40
2022-10-31T13:02:04.357Z,37.90
2022-10-31T13:04:42.619Z,38.00
2022-10-31T13:07:16.843Z,38.30
2022-10-31T13:09:55.666Z,38.30
2022-10-31T13:12:24.953Z,38.40
2022-10-31T13:14:58.769Z,38.30
2022-10-31T13:17:40.352Z,38.30
2022-10-31T13:20:35.858Z,38.50
2022-10-31T13:23:29.655Z,38.60
2022-10-31T13:26:05.123Z,37.90
2022-10-31T13:28:45.965Z,38.10
2022-10-31T13:31:14.533Z,38.60
2022-10-31T13:33:57.402Z,39.00
2022-10-31T13:36:49.605Z,39.20
2022-10-31T13:40:01.600Z,39.20
2022-10-31T13:42:43.337Z,38.70
2022-10-31T13:45:22.081Z,38.60
2022-10-31T13:48:00.112Z,38.60
2022-10-31T13:50:33.285Z,38.80
2022-10-31T13:53:22.046Z,38.90
2022-10-31T13:56:09.237Z,38.90
2022-10-31T13:58:37.222Z,38.80
2022-10-31T14:01:20.253Z,38.70
2022-10-31T14:04:07.666Z,38.90
2022-10-31T14:06:53.141Z,39.10
2022-10-31T14:09:28.851Z,39.10
2022-10-31T14:11:57.695Z,39.20
2022-10-31T14:14:31.938Z,39.20
2022-10-31T14:16:59.703Z,39.30
2022-10-31T14:19:27.953Z,39.40
2022-10-31T14:21:55.202Z,39.40
2022-10-31T14:24:25.065Z,39.40
2022-10-31T14:27:00.518Z,39.30
2022-10-31T14:29:34.833Z,39.30
2022-10-31T14:32:19.334Z,39.40
2022-10-31T14:34:56.516Z,39.40
2022-10-31T14:38:01.458Z,39.40
2022-10-31T14:41:16.361Z,39.40
2022-10-31T14:43:46.239Z,39.50
2022-10-31T14:46:33.952Z,39.50
2022-10-31T14:49:13.912Z,39.30
2022-10-31T14:51:45.429Z,39.20
2022-10-31T14:54:19.092Z,38.90
2022-10-31T14:56:54.459Z,38.70
2022-10-31T14:59:25.723Z,38.50
2022-10-31T15:01:58.879Z,38.60
2022-10-31T15:04:29.952Z,38.60
2022-10-31T15:06:59.879Z,38.70
2022-10-31T15:09:37.960Z,38.80
2022-10-31T15:12:30.902Z,38.60
2022-10-31T15:14:59.964Z,38.70
2022-10-31T15:17:27.842Z,38.60
2022-10-31T15:19:55.516Z,38.70
2022-10-31T15:22:26.795Z,38.80
2022-10-31T15:24:57.456Z,38.80
2022-10-31T15:27:25.871Z,38.80
2022-10-31T15:29:57.455Z,38.60
2022-10-31T15:32:27.514Z,38.40
2022-10-31T15:34:56.825Z,38.40
2022-10-31T15:37:26.318Z,38.50
2022-10-31T15:39:53.362Z,38.50
2022-10-31T15:42:37.020Z,38.50
2022-10-31T15:45:19.862Z,38.40
2022-10-31T15:48:08.870Z,38.40
2022-10-31T15:50:42.178Z,38.30
2022-10-31T15:53:35.359Z,38.20
2022-10-31T15:56:06.227Z,38.30
2022-10-31T15:58:40.473Z,38.40
2022-10-31T16:01:21.656Z,38.50
2022-10-31T16:04:22.008Z,38.40
2022-10-31T16:07:23.510Z,38.40
2022-10-31T16:10:02.282Z,38.50
2022-10-31T16:12:45.651Z,38.50
2022-10-31T16:15:17.752Z,38.60
2022-10-31T16:17:47.545Z,38.60
2022-10-31T16:20:26.373Z,38.60
2022-10-31T16:22:55.502Z,38.60
2022-10-31T16:25:25.987Z,38.50
2022-10-31T16:27:57.610Z,38.60
2022-10-31T16:30:45.364Z,38.60
2022-10-31T16:33:27.516Z,38.40
2022-10-31T16:36:09.637Z,38.40
2022-10-31T16:38:43.116Z,38.40
2022-10-31T16:41:10.399Z,38.40
2022-10-31T16:43:37.561Z,38.50
2022-10-31T16:46:05.488Z,38.60
2022-10-31T16:48:32.556Z,38.50
2022-10-31T16:50:59.488Z,38.50
2022-10-31T16:53:26.389Z,38.60
2022-10-31T16:55:59.368Z,38.60
2022-10-31T16:58:30.909Z,38.50
2022-10-31T17:00:58.336Z,38.60
2022-10-31T17:03:33.054Z,38.30
2022-10-31T17:06:00.744Z,38.50
2022-10-31T17:08:28.977Z,38.60
2022-10-31T17:10:57.947Z,38.70
2022-10-31T17:13:28.674Z,38.80
2022-10-31T17:15:59.013Z,38.70
2022-10-31T17:18:27.789Z,38.60
2022-10-31T17:21:00.078Z,38.60
2022-10-31T17:23:28.760Z,38.50
2022-10-31T17:25:56.921Z,38.50
2022-10-31T17:28:23.889Z,38.50
2022-10-31T17:30:50.926Z,38.40
2022-10-31T17:33:18.201Z,38.50
2022-10-31T17:35:45.197Z,38.50
2022-10-31T17:38:12.963Z,38.40
2022-10-31T17:40:42.473Z,38.40
2022-10-31T17:43:10.893Z,38.40
2022-10-31T17:45:40.623Z,38.30
2022-10-31T17:48:09.581Z,38.30
2022-10-31T17:50:36.859Z,38.40
2022-10-31T17:53:06.614Z,38.40
2022-10-31T17:55:37.204Z,38.30
2022-10-31T17:58:05.030Z,38.20
2022-10-31T18:00:32.357Z,38.10
2022-10-31T18:02:59.789Z,37.90
2022-10-31T18:05:27.284Z,37.80
2022-10-31T18:07:55.178Z,37.80
2022-10-31T18:10:23.595Z,37.80
2022-10-31T18:12:50.656Z,37.70
2022-10-31T18:15:18.463Z,37.70
2022-10-31T18:17:46.561Z,37.90
2022-10-31T18:20:13.691Z,38.00
2022-10-31T18:22:40.783Z,38.00
2022-10-31T18:25:08.035Z,38.00
2022-10-31T18:27:35.268Z,38.10
2022-10-31T18:30:02.280Z,38.10
2022-10-31T18:32:30.031Z,38.10
2022-10-31T18:34:56.972Z,38.00
2022-10-31T18:37:23.873Z,38.00
2022-10-31T18:39:50.796Z,37.90
2022-10-31T18:42:17.803Z,38.10
2022-10-31T18:44:44.980Z,38.10
2022-10-31T18:47:11.944Z,38.20
2022-10-31T18:49:38.890Z,38.30
2022-10-31T18:52:09.485Z,38.30
2022-10-31T18:54:36.552Z,38.40
2022-10-31T18:57:03.609Z,38.50
2022-10-31T18:59:30.636Z,38.50
2022-10-31T19:01:57.794Z,38.50
2022-10-31T19:04:25.045Z,38.50
2022-10-31T19:06:51.990Z,38.60
2022-10-31T19:09:19.555Z,38.60
2022-10-31T19:11:46.711Z,38.50
2022-10-31T19:14:15.112Z,38.50
2022-10-31T19:16:42.418Z,38.60
2022-10-31T19:19:10.324Z,38.50
2022-10-31T19:21:37.375Z,38.30
2022-10-31T19:24:04.734Z,38.30
2022-10-31T19:26:34.294Z,38.30
2022-10-31T19:29:01.401Z,38.30
2022-10-31T19:31:28.872Z,38.20
2022-10-31T19:33:55.819Z,38.20
2022-10-31T19:36:23.965Z,38.30
2022-10-31T19:39:07.148Z,38.20
2022-10-31T19:41:35.716Z,38.20
2022-10-31T19:44:05.013Z,38.20
2022-10-31T19:49:21.940Z,37.80
2022-10-31T19:51:51.213Z,37.70
2022-10-31T19:54:24.037Z,37.70
2022-10-31T19:56:56.505Z,37.90
2022-10-31T19:59:26.119Z,37.70
2022-10-31T20:01:53.092Z,37.70
2022-10-31T20:04:20.634Z,37.40
2022-10-31T20:06:47.683Z,37.40
2022-10-31T20:09:15.502Z,37.30
2022-10-31T20:11:45.533Z,37.40
2022-10-31T20:14:17.900Z,37.30
2022-10-31T20:16:51.557Z,37.40
2022-10-31T20:19:18.509Z,37.50
2022-10-31T20:21:45.774Z,37.50
2022-10-31T20:24:12.727Z,37.60
2022-10-31T20:26:41.757Z,37.60
2022-10-31T20:29:16.361Z,37.50
2022-10-31T20:31:45.036Z,37.70
2022-10-31T20:34:14.672Z,37.80
2022-10-31T20:36:45.731Z,37.90
2022-10-31T20:39:15.560Z,38.00
2022-10-31T20:41:42.867Z,38.10
2022-10-31T20:44:10.071Z,38.00
2022-10-31T20:46:37.002Z,38.10
2022-10-31T20:49:05.856Z,38.00
2022-10-31T20:51:32.967Z,38.20
2022-10-31T20:54:00.876Z,38.10
2022-10-31T20:56:29.052Z,37.80
2022-10-31T20:58:57.892Z,37.60
2022-10-31T21:01:30.378Z,37.80
2022-10-31T21:03:58.824Z,37.90
2022-10-31T21:06:28.058Z,37.70
2022-10-31T21:08:55.998Z,37.70
2022-10-31T21:11:25.700Z,37.60
2022-10-31T21:13:52.925Z,37.70
2022-10-31T21:16:34.497Z,37.70
2022-10-31T21:19:03.133Z,37.80
2022-10-31T21:21:35.528Z,37.90
2022-10-31T21:24:13.018Z,38.00
2022-10-31T21:26:42.840Z,37.90
2022-10-31T21:29:11.480Z,37.70
2022-10-31T21:31:40.412Z,37.60
2022-10-31T21:34:07.580Z,37.50
2022-10-31T21:36:36.183Z,37.50
2022-10-31T21:39:04.959Z,37.50
2022-10-31T21:41:31.989Z,37.60
2022-10-31T21:43:59.102Z,37.70
2022-10-31T21:46:27.172Z,37.90
2022-10-31T21:48:57.960Z,37.70
2022-10-31T21:51:30.341Z,37.80
2022-10-31T21:54:16.363Z,37.60
2022-10-31T21:56:44.176Z,37.60
2022-10-31T21:59:11.594Z,37.60
2022-10-31T22:01:38.992Z,37.60
2022-10-31T22:04:06.703Z,37.40
2022-10-31T22:06:34.128Z,37.60
2022-10-31T22:09:02.818Z,37.50
2022-10-31T22:11:30.061Z,37.50
2022-10-31T22:13:59.791Z,37.60
2022-10-31T22:16:27.947Z,37.60
2022-10-31T22:18:58.441Z,37.60
2022-10-31T22:21:27.487Z,37.50
2022-10-31T22:24:02.035Z,37.60
2022-10-31T22:26:32.894Z,37.50
2022-10-31T22:29:02.481Z,37.30
2022-10-31T22:31:30.923Z,37.50
2022-10-31T22:33:58.386Z,37.50
2022-10-31T22:36:28.903Z,37.40
2022-10-31T22:38:56.298Z,37.40
2022-10-31T22:41:32.761Z,37.60
2022-10-31T22:44:00.439Z,37.50
2022-10-31T22:46:33.351Z,37.30
2022-10-31T22:49:10.192Z,37.40
2022-10-31T22:51:40.055Z,37.60
2022-10-31T22:54:28.383Z,37.70
2022-10-31T22:56:56.839Z,37.40
2022-10-31T22:59:23.815Z,37.50
2022-10-31T23:01:51.247Z,37.50
2022-10-31T23:04:18.650Z,37.40
2022-10-31T23:06:45.814Z,37.30
2022-10-31T23:09:15.213Z,37.30
2022-10-31T23:11:44.836Z,37.20
2022-10-31T23:14:16.482Z,37.10
2022-10-31T23:16:52.852Z,37.30
2022-10-31T23:19:22.564Z,37.20
2022-10-31T23:21:56.686Z,37.30
2022-10-31T23:24:25.420Z,37.20
2022-10-31T23:27:08.764Z,37.10
2022-10-31T23:29:44.561Z,36.90
2022-10-31T23:32:18.206Z,37.00
2022-10-31T23:34:45.867Z,37.10
2022-10-31T23:37:13.701Z,37.10
2022-10-31T23:39:40.853Z,37.30
2022-10-31T23:42:07.882Z,37.40
2022-10-31T23:44:35.454Z,37.40
2022-10-31T23:47:02.714Z,37.10
2022-10-31T23:49:29.691Z,36.80
2022-10-31T23:51:56.763Z,36.70
2022-10-31T23:54:24.633Z,36.90
2022-10-31T23:56:51.846Z,37.10
2022-10-31T23:59:19.073Z,37.00
